sensor_id;sensor_type;location;lat;lon;timestamp;pressure;altitude;pressure_sealevel;temperature;humidity
3598;BME280;1813;52.016;8.714;2023-03-15T00:00:55;-16261.94;;;-139.71;58.24
3598;BME280;1813;52.016;8.714;2023-03-15T00:03:29;-16261.94;;;-139.71;58.38
3598;BME280;1813;52.016;8.714;2023-03-15T00:06:15;-16261.94;;;-139.71;58.66
3598;BME280;1813;52.016;8.714;2023-03-15T00:08:49;-16261.94;;;-139.71;58.89
3598;BME280;1813;52.016;8.714;2023-03-15T00:11:24;-16261.94;;;-139.71;59.06
3598;BME280;1813;52.016;8.714;2023-03-15T00:14:03;-16261.94;;;-139.71;59.22
3598;BME280;1813;52.016;8.714;2023-03-15T00:16:37;-16261.94;;;-139.71;59.29
3598;BME280;1813;52.016;8.714;2023-03-15T00:19:13;-16261.94;;;-139.71;59.46
3598;BME280;1813;52.016;8.714;2023-03-15T00:21:46;-16261.94;;;-139.71;59.48
3598;BME280;1813;52.016;8.714;2023-03-15T00:24:20;-16261.94;;;-139.71;59.68
3598;BME280;1813;52.016;8.714;2023-03-15T00:26:54;-16261.94;;;-139.71;59.83
3598;BME280;1813;52.016;8.714;2023-03-15T00:29:32;-16261.94;;;-139.71;60.04
3598;BME280;1813;52.016;8.714;2023-03-15T00:32:09;-16261.94;;;-139.71;60.28
3598;BME280;1813;52.016;8.714;2023-03-15T00:34:51;-16261.94;;;-139.71;60.29
3598;BME280;1813;52.016;8.714;2023-03-15T00:37:24;-16261.94;;;-139.71;60.55
3598;BME280;1813;52.016;8.714;2023-03-15T00:39:58;-16261.94;;;-139.71;60.67
3598;BME280;1813;52.016;8.714;2023-03-15T00:42:39;-16261.94;;;-139.71;60.62
3598;BME280;1813;52.016;8.714;2023-03-15T00:45:24;-16261.94;;;-139.71;60.73
3598;BME280;1813;52.016;8.714;2023-03-15T00:47:59;-16261.94;;;-139.71;60.77
3598;BME280;1813;52.016;8.714;2023-03-15T00:50:34;-16261.94;;;-139.71;60.69
3598;BME280;1813;52.016;8.714;2023-03-15T00:53:09;-16261.94;;;-139.71;60.69
3598;BME280;1813;52.016;8.714;2023-03-15T00:55:45;-16261.94;;;-139.71;60.46
3598;BME280;1813;52.016;8.714;2023-03-15T00:58:20;-16261.94;;;-139.71;60.38
3598;BME280;1813;52.016;8.714;2023-03-15T01:00:59;-16261.94;;;-139.71;60.34
3598;BME280;1813;52.016;8.714;2023-03-15T01:03:33;-16261.94;;;-139.71;60.31
3598;BME280;1813;52.016;8.714;2023-03-15T01:06:09;-16261.94;;;-139.71;60.17
3598;BME280;1813;52.016;8.714;2023-03-15T01:08:46;-16261.94;;;-139.71;60.04
3598;BME280;1813;52.016;8.714;2023-03-15T01:11:22;-16261.94;;;-139.71;60.01
3598;BME280;1813;52.016;8.714;2023-03-15T01:13:57;-16261.94;;;-139.71;60.02
3598;BME280;1813;52.016;8.714;2023-03-15T01:16:37;-16261.94;;;-139.71;59.91
3598;BME280;1813;52.016;8.714;2023-03-15T01:19:14;-16261.94;;;-139.71;59.92
3598;BME280;1813;52.016;8.714;2023-03-15T01:21:50;-16261.94;;;-139.71;60.02
3598;BME280;1813;52.016;8.714;2023-03-15T01:24:23;-16261.94;;;-139.71;60.13
3598;BME280;1813;52.016;8.714;2023-03-15T01:26:59;-16261.94;;;-139.71;60.42
3598;BME280;1813;52.016;8.714;2023-03-15T01:29:33;-16261.94;;;-139.71;60.65
3598;BME280;1813;52.016;8.714;2023-03-15T01:32:11;-16261.94;;;-139.71;60.93
3598;BME280;1813;52.016;8.714;2023-03-15T01:34:46;-16261.94;;;-139.71;61.57
3598;BME280;1813;52.016;8.714;2023-03-15T01:37:22;-16261.94;;;-139.71;62.04
3598;BME280;1813;52.016;8.714;2023-03-15T01:39:59;-16261.94;;;-139.71;62.40
3598;BME280;1813;52.016;8.714;2023-03-15T01:42:50;-16261.94;;;-139.71;62.89
3598;BME280;1813;52.016;8.714;2023-03-15T01:45:52;-16261.94;;;-139.71;63.55
3598;BME280;1813;52.016;8.714;2023-03-15T01:48:38;-16261.94;;;-139.71;64.27
3598;BME280;1813;52.016;8.714;2023-03-15T01:51:19;-16261.94;;;-139.71;65.33
3598;BME280;1813;52.016;8.714;2023-03-15T01:54:01;-16261.94;;;-139.71;66.20
3598;BME280;1813;52.016;8.714;2023-03-15T01:56:42;-16261.94;;;-139.71;67.23
3598;BME280;1813;52.016;8.714;2023-03-15T01:59:24;-16261.94;;;-139.71;68.09
3598;BME280;1813;52.016;8.714;2023-03-15T02:02:03;-16261.94;;;-139.71;69.03
3598;BME280;1813;52.016;8.714;2023-03-15T02:04:44;-16261.94;;;-139.71;69.59
3598;BME280;1813;52.016;8.714;2023-03-15T02:07:23;-16261.94;;;-139.71;70.43
3598;BME280;1813;52.016;8.714;2023-03-15T02:10:08;-16261.94;;;-139.71;71.31
3598;BME280;1813;52.016;8.714;2023-03-15T02:12:49;-16261.94;;;-139.71;72.00
3598;BME280;1813;52.016;8.714;2023-03-15T02:15:23;-16261.94;;;-139.71;72.94
3598;BME280;1813;52.016;8.714;2023-03-15T02:18:00;-16261.94;;;-139.71;73.80
3598;BME280;1813;52.016;8.714;2023-03-15T02:20:40;-16261.94;;;-139.71;74.57
3598;BME280;1813;52.016;8.714;2023-03-15T02:23:18;-16261.94;;;-139.71;75.26
3598;BME280;1813;52.016;8.714;2023-03-15T02:26:00;-16261.94;;;-139.71;75.95
3598;BME280;1813;52.016;8.714;2023-03-15T02:28:38;-16261.94;;;-139.71;76.60
3598;BME280;1813;52.016;8.714;2023-03-15T02:31:14;-16261.94;;;-139.71;77.17
3598;BME280;1813;52.016;8.714;2023-03-15T02:33:49;-16261.94;;;-139.71;77.49
3598;BME280;1813;52.016;8.714;2023-03-15T02:36:27;-16261.94;;;-139.71;77.98
3598;BME280;1813;52.016;8.714;2023-03-15T02:39:14;-16261.94;;;-139.71;78.26
3598;BME280;1813;52.016;8.714;2023-03-15T02:41:55;-16261.94;;;-139.71;78.52
3598;BME280;1813;52.016;8.714;2023-03-15T02:44:36;-16261.94;;;-139.71;78.81
3598;BME280;1813;52.016;8.714;2023-03-15T02:47:14;-16261.94;;;-139.71;79.26
3598;BME280;1813;52.016;8.714;2023-03-15T02:49:52;-16261.94;;;-139.71;79.51
3598;BME280;1813;52.016;8.714;2023-03-15T02:52:26;-16261.94;;;-139.71;79.67
3598;BME280;1813;52.016;8.714;2023-03-15T02:55:05;-16261.94;;;-139.71;79.70
3598;BME280;1813;52.016;8.714;2023-03-15T02:57:40;-16261.94;;;-139.71;79.95
3598;BME280;1813;52.016;8.714;2023-03-15T03:00:19;-16261.94;;;-139.71;80.13
3598;BME280;1813;52.016;8.714;2023-03-15T03:02:54;-16261.94;;;-139.71;80.24
3598;BME280;1813;52.016;8.714;2023-03-15T03:05:29;-16261.94;;;-139.71;80.47
3598;BME280;1813;52.016;8.714;2023-03-15T03:08:03;-16261.94;;;-139.71;80.68
3598;BME280;1813;52.016;8.714;2023-03-15T03:10:39;-16261.94;;;-139.71;80.80
3598;BME280;1813;52.016;8.714;2023-03-15T03:13:13;-16261.94;;;-139.71;80.78
3598;BME280;1813;52.016;8.714;2023-03-15T03:15:51;-16261.94;;;-139.71;80.94
3598;BME280;1813;52.016;8.714;2023-03-15T03:18:30;-16261.94;;;-139.71;81.05
3598;BME280;1813;52.016;8.714;2023-03-15T03:21:07;-16261.94;;;-139.71;81.05
3598;BME280;1813;52.016;8.714;2023-03-15T03:23:42;-16261.94;;;-139.71;81.35
3598;BME280;1813;52.016;8.714;2023-03-15T03:26:17;-16261.94;;;-139.71;81.50
3598;BME280;1813;52.016;8.714;2023-03-15T03:28:54;-16261.94;;;-139.71;81.64
3598;BME280;1813;52.016;8.714;2023-03-15T03:31:33;-16261.94;;;-139.71;81.59
3598;BME280;1813;52.016;8.714;2023-03-15T03:34:09;-16261.94;;;-139.71;81.65
3598;BME280;1813;52.016;8.714;2023-03-15T03:36:46;-16261.94;;;-139.71;82.01
3598;BME280;1813;52.016;8.714;2023-03-15T03:39:29;-16261.94;;;-139.71;82.02
3598;BME280;1813;52.016;8.714;2023-03-15T03:42:06;-16261.94;;;-139.71;82.07
3598;BME280;1813;52.016;8.714;2023-03-15T03:44:40;-16261.94;;;-139.71;81.91
3598;BME280;1813;52.016;8.714;2023-03-15T03:47:17;-16261.94;;;-139.71;82.00
3598;BME280;1813;52.016;8.714;2023-03-15T03:49:51;-16261.94;;;-139.71;81.97
3598;BME280;1813;52.016;8.714;2023-03-15T03:52:28;-16261.94;;;-139.71;82.12
3598;BME280;1813;52.016;8.714;2023-03-15T03:55:10;-16261.94;;;-139.71;82.12
3598;BME280;1813;52.016;8.714;2023-03-15T03:57:47;-16261.94;;;-139.71;82.15
3598;BME280;1813;52.016;8.714;2023-03-15T04:00:37;-16261.94;;;-139.71;82.19
3598;BME280;1813;52.016;8.714;2023-03-15T04:03:19;-16261.94;;;-139.71;82.15
3598;BME280;1813;52.016;8.714;2023-03-15T04:05:59;-16261.94;;;-139.71;82.12
3598;BME280;1813;52.016;8.714;2023-03-15T04:08:36;-16261.94;;;-139.71;81.86
3598;BME280;1813;52.016;8.714;2023-03-15T04:11:16;-16261.94;;;-139.71;81.84
3598;BME280;1813;52.016;8.714;2023-03-15T04:14:00;-16261.94;;;-139.71;81.61
3598;BME280;1813;52.016;8.714;2023-03-15T04:16:35;-16261.94;;;-139.71;81.57
3598;BME280;1813;52.016;8.714;2023-03-15T04:19:15;-16261.94;;;-139.71;81.41
3598;BME280;1813;52.016;8.714;2023-03-15T04:21:50;-16261.94;;;-139.71;81.38
3598;BME280;1813;52.016;8.714;2023-03-15T04:24:39;-16261.94;;;-139.71;81.28
3598;BME280;1813;52.016;8.714;2023-03-15T04:27:32;-16261.94;;;-139.71;81.01
3598;BME280;1813;52.016;8.714;2023-03-15T04:30:16;-16261.94;;;-139.71;80.91
3598;BME280;1813;52.016;8.714;2023-03-15T04:33:11;-16261.94;;;-139.71;80.72
3598;BME280;1813;52.016;8.714;2023-03-15T04:36:21;-16261.94;;;-139.71;80.65
3598;BME280;1813;52.016;8.714;2023-03-15T04:39:20;-16261.94;;;-139.71;80.52
3598;BME280;1813;52.016;8.714;2023-03-15T04:42:05;-16261.94;;;-139.71;80.17
3598;BME280;1813;52.016;8.714;2023-03-15T04:44:58;-16261.94;;;-139.71;79.78
3598;BME280;1813;52.016;8.714;2023-03-15T04:47:58;-16261.94;;;-139.71;79.60
3598;BME280;1813;52.016;8.714;2023-03-15T04:51:00;-16261.94;;;-139.71;79.45
3598;BME280;1813;52.016;8.714;2023-03-15T04:54:00;-16261.94;;;-139.71;79.51
3598;BME280;1813;52.016;8.714;2023-03-15T04:57:05;-16261.94;;;-139.71;79.78
3598;BME280;1813;52.016;8.714;2023-03-15T04:59:49;-16261.94;;;-139.71;80.00
3598;BME280;1813;52.016;8.714;2023-03-15T05:02:43;-16261.94;;;-139.71;80.17
3598;BME280;1813;52.016;8.714;2023-03-15T05:05:44;-16261.94;;;-139.71;80.20
3598;BME280;1813;52.016;8.714;2023-03-15T05:08:35;-16261.94;;;-139.71;80.25
3598;BME280;1813;52.016;8.714;2023-03-15T05:11:40;-16261.94;;;-139.71;80.29
3598;BME280;1813;52.016;8.714;2023-03-15T05:14:34;-16261.94;;;-139.71;80.37
3598;BME280;1813;52.016;8.714;2023-03-15T05:17:33;-16261.94;;;-139.71;80.37
3598;BME280;1813;52.016;8.714;2023-03-15T05:20:38;-16261.94;;;-139.71;80.33
3598;BME280;1813;52.016;8.714;2023-03-15T05:23:48;-16261.94;;;-139.71;80.45
3598;BME280;1813;52.016;8.714;2023-03-15T05:26:46;-16261.94;;;-139.71;80.27
3598;BME280;1813;52.016;8.714;2023-03-15T05:29:36;-16261.94;;;-139.71;80.44
3598;BME280;1813;52.016;8.714;2023-03-15T05:32:29;-16261.94;;;-139.71;80.25
3598;BME280;1813;52.016;8.714;2023-03-15T05:35:23;-16261.94;;;-139.71;80.32
3598;BME280;1813;52.016;8.714;2023-03-15T05:38:35;-16261.94;;;-139.71;80.35
3598;BME280;1813;52.016;8.714;2023-03-15T05:41:47;-16261.94;;;-139.71;80.30
3598;BME280;1813;52.016;8.714;2023-03-15T05:44:34;-16261.94;;;-139.71;80.18
3598;BME280;1813;52.016;8.714;2023-03-15T05:47:27;-16261.94;;;-139.71;80.19
3598;BME280;1813;52.016;8.714;2023-03-15T05:50:29;-16261.94;;;-139.71;80.00
3598;BME280;1813;52.016;8.714;2023-03-15T05:53:26;-16261.94;;;-139.71;80.01
3598;BME280;1813;52.016;8.714;2023-03-15T05:56:08;-16261.94;;;-139.71;80.14
3598;BME280;1813;52.016;8.714;2023-03-15T05:59:17;-16261.94;;;-139.71;79.96
3598;BME280;1813;52.016;8.714;2023-03-15T06:02:19;-16261.94;;;-139.71;79.83
3598;BME280;1813;52.016;8.714;2023-03-15T06:05:11;-16261.94;;;-139.71;79.92
3598;BME280;1813;52.016;8.714;2023-03-15T06:07:48;-16261.94;;;-139.71;79.85
3598;BME280;1813;52.016;8.714;2023-03-15T06:10:24;-16261.94;;;-139.71;79.84
3598;BME280;1813;52.016;8.714;2023-03-15T06:13:05;-16261.94;;;-139.71;79.80
3598;BME280;1813;52.016;8.714;2023-03-15T06:15:45;-16261.94;;;-139.71;79.68
3598;BME280;1813;52.016;8.714;2023-03-15T06:18:20;-16261.94;;;-139.71;79.77
3598;BME280;1813;52.016;8.714;2023-03-15T06:20:55;-16261.94;;;-139.71;79.65
3598;BME280;1813;52.016;8.714;2023-03-15T06:23:31;-16261.94;;;-139.71;79.67
3598;BME280;1813;52.016;8.714;2023-03-15T06:26:12;-16261.94;;;-139.71;79.58
3598;BME280;1813;52.016;8.714;2023-03-15T06:28:51;-16261.94;;;-139.71;79.53
3598;BME280;1813;52.016;8.714;2023-03-15T06:31:30;-16261.94;;;-139.71;79.52
3598;BME280;1813;52.016;8.714;2023-03-15T06:34:09;-16261.94;;;-139.71;79.53
3598;BME280;1813;52.016;8.714;2023-03-15T06:36:49;-16261.94;;;-139.71;79.58
3598;BME280;1813;52.016;8.714;2023-03-15T06:39:25;-16261.94;;;-139.71;79.53
3598;BME280;1813;52.016;8.714;2023-03-15T06:42:05;-16261.94;;;-139.71;79.53
3598;BME280;1813;52.016;8.714;2023-03-15T06:44:44;-16261.94;;;-139.71;79.58
3598;BME280;1813;52.016;8.714;2023-03-15T06:47:24;-16261.94;;;-139.71;79.58
3598;BME280;1813;52.016;8.714;2023-03-15T06:49:58;-16261.94;;;-139.71;79.51
3598;BME280;1813;52.016;8.714;2023-03-15T06:52:35;-16261.94;;;-139.71;79.38
3598;BME280;1813;52.016;8.714;2023-03-15T06:55:09;-16261.94;;;-139.71;79.29
3598;BME280;1813;52.016;8.714;2023-03-15T06:57:49;-16261.94;;;-139.71;78.97
3598;BME280;1813;52.016;8.714;2023-03-15T07:00:25;-16261.94;;;-139.71;78.75
3598;BME280;1813;52.016;8.714;2023-03-15T07:03:05;-16261.94;;;-139.71;78.89
3598;BME280;1813;52.016;8.714;2023-03-15T07:05:42;-16261.94;;;-139.71;79.29
3598;BME280;1813;52.016;8.714;2023-03-15T07:08:17;-16261.94;;;-139.71;79.37
3598;BME280;1813;52.016;8.714;2023-03-15T07:10:52;-16261.94;;;-139.71;79.25
3598;BME280;1813;52.016;8.714;2023-03-15T07:13:27;-16261.94;;;-139.71;78.84
3598;BME280;1813;52.016;8.714;2023-03-15T07:16:02;-16261.94;;;-139.71;78.32
3598;BME280;1813;52.016;8.714;2023-03-15T07:18:40;-16261.94;;;-139.71;77.26
3598;BME280;1813;52.016;8.714;2023-03-15T07:21:13;-16261.94;;;-139.71;76.52
3598;BME280;1813;52.016;8.714;2023-03-15T07:23:48;-16261.94;;;-139.71;75.59
3598;BME280;1813;52.016;8.714;2023-03-15T07:26:24;-16261.94;;;-139.71;75.13
3598;BME280;1813;52.016;8.714;2023-03-15T07:29:00;-16261.94;;;-139.71;74.35
3598;BME280;1813;52.016;8.714;2023-03-15T07:31:34;-16261.94;;;-139.71;73.54
3598;BME280;1813;52.016;8.714;2023-03-15T07:34:12;-16261.94;;;-139.71;73.26
3598;BME280;1813;52.016;8.714;2023-03-15T07:36:47;-16261.94;;;-139.71;72.35
3598;BME280;1813;52.016;8.714;2023-03-15T07:39:22;-16261.94;;;-139.71;70.93
3598;BME280;1813;52.016;8.714;2023-03-15T07:41:56;-16261.94;;;-139.71;69.46
3598;BME280;1813;52.016;8.714;2023-03-15T07:44:36;-16261.94;;;-139.71;68.98
3598;BME280;1813;52.016;8.714;2023-03-15T07:47:10;-16261.94;;;-139.71;69.50
3598;BME280;1813;52.016;8.714;2023-03-15T07:49:47;-16261.94;;;-139.71;70.45
3598;BME280;1813;52.016;8.714;2023-03-15T07:52:21;-16261.94;;;-139.71;70.97
3598;BME280;1813;52.016;8.714;2023-03-15T07:54:56;-16261.94;;;-139.71;69.97
3598;BME280;1813;52.016;8.714;2023-03-15T07:57:30;-16261.94;;;-139.71;69.39
3598;BME280;1813;52.016;8.714;2023-03-15T08:00:08;-16261.94;;;-139.71;69.39
3598;BME280;1813;52.016;8.714;2023-03-15T08:02:43;-16261.94;;;-139.71;68.36
3598;BME280;1813;52.016;8.714;2023-03-15T08:05:20;-16261.94;;;-139.71;67.58
3598;BME280;1813;52.016;8.714;2023-03-15T08:07:55;-16261.94;;;-139.71;67.17
3598;BME280;1813;52.016;8.714;2023-03-15T08:10:31;-16261.94;;;-139.71;66.63
3598;BME280;1813;52.016;8.714;2023-03-15T08:13:05;-16261.94;;;-139.71;65.92
3598;BME280;1813;52.016;8.714;2023-03-15T08:15:40;-16261.94;;;-139.71;65.96
3598;BME280;1813;52.016;8.714;2023-03-15T08:18:17;-16261.94;;;-139.71;66.67
3598;BME280;1813;52.016;8.714;2023-03-15T08:20:54;-16261.94;;;-139.71;66.84
3598;BME280;1813;52.016;8.714;2023-03-15T08:23:30;-16261.94;;;-139.71;67.29
3598;BME280;1813;52.016;8.714;2023-03-15T08:26:04;-16261.94;;;-139.71;69.12
3598;BME280;1813;52.016;8.714;2023-03-15T08:28:39;-16261.94;;;-139.71;68.89
3598;BME280;1813;52.016;8.714;2023-03-15T08:31:13;-16261.94;;;-139.71;68.32
3598;BME280;1813;52.016;8.714;2023-03-15T08:33:50;-16261.94;;;-139.71;68.68
3598;BME280;1813;52.016;8.714;2023-03-15T08:36:28;-16261.94;;;-139.71;65.42
3598;BME280;1813;52.016;8.714;2023-03-15T08:39:04;-16261.94;;;-139.71;64.62
3598;BME280;1813;52.016;8.714;2023-03-15T08:41:39;-16261.94;;;-139.71;63.10
3598;BME280;1813;52.016;8.714;2023-03-15T08:44:13;-16261.94;;;-139.71;61.47
3598;BME280;1813;52.016;8.714;2023-03-15T08:46:48;-16261.94;;;-139.71;62.22
3598;BME280;1813;52.016;8.714;2023-03-15T08:49:29;-16261.94;;;-139.71;62.33
3598;BME280;1813;52.016;8.714;2023-03-15T08:52:10;-16261.94;;;-139.71;62.40
3598;BME280;1813;52.016;8.714;2023-03-15T08:54:48;-16261.94;;;-139.71;62.06
3598;BME280;1813;52.016;8.714;2023-03-15T08:57:28;-16261.94;;;-139.71;62.22
3598;BME280;1813;52.016;8.714;2023-03-15T09:00:06;-16261.94;;;-139.71;62.06
3598;BME280;1813;52.016;8.714;2023-03-15T09:02:45;-16261.94;;;-139.71;61.59
3598;BME280;1813;52.016;8.714;2023-03-15T09:05:23;-16261.94;;;-139.71;60.20
3598;BME280;1813;52.016;8.714;2023-03-15T09:08:03;-16261.94;;;-139.71;59.54
3598;BME280;1813;52.016;8.714;2023-03-15T09:10:56;-16261.94;;;-139.71;60.28
3598;BME280;1813;52.016;8.714;2023-03-15T09:13:31;-16261.94;;;-139.71;60.95
3598;BME280;1813;52.016;8.714;2023-03-15T09:16:06;-16261.94;;;-139.71;61.27
3598;BME280;1813;52.016;8.714;2023-03-15T09:18:43;-16261.94;;;-139.71;59.69
3598;BME280;1813;52.016;8.714;2023-03-15T09:21:17;-16261.94;;;-139.71;59.12
3598;BME280;1813;52.016;8.714;2023-03-15T09:23:55;-16261.94;;;-139.71;58.46
3598;BME280;1813;52.016;8.714;2023-03-15T09:26:33;-16261.94;;;-139.71;56.66
3598;BME280;1813;52.016;8.714;2023-03-15T09:29:07;-16261.94;;;-139.71;55.82
3598;BME280;1813;52.016;8.714;2023-03-15T09:31:41;-16261.94;;;-139.71;54.74
3598;BME280;1813;52.016;8.714;2023-03-15T09:34:15;-16261.94;;;-139.71;54.63
3598;BME280;1813;52.016;8.714;2023-03-15T09:36:50;-16261.94;;;-139.71;53.18
3598;BME280;1813;52.016;8.714;2023-03-15T09:39:36;-16261.94;;;-139.71;52.43
3598;BME280;1813;52.016;8.714;2023-03-15T09:42:24;-16261.94;;;-139.71;53.34
3598;BME280;1813;52.016;8.714;2023-03-15T09:45:06;-16261.94;;;-139.71;52.65
3598;BME280;1813;52.016;8.714;2023-03-15T09:47:54;-16261.94;;;-139.71;53.29
3598;BME280;1813;52.016;8.714;2023-03-15T09:50:37;-16261.94;;;-139.71;53.98
3598;BME280;1813;52.016;8.714;2023-03-15T09:53:17;-16261.94;;;-139.71;52.86
3598;BME280;1813;52.016;8.714;2023-03-15T09:55:56;-16261.94;;;-139.71;53.54
3598;BME280;1813;52.016;8.714;2023-03-15T09:58:31;-16261.94;;;-139.71;54.20
3598;BME280;1813;52.016;8.714;2023-03-15T10:01:07;-16261.94;;;-139.71;52.27
3598;BME280;1813;52.016;8.714;2023-03-15T10:03:46;-16261.94;;;-139.71;51.48
3598;BME280;1813;52.016;8.714;2023-03-15T10:06:27;-16261.94;;;-139.71;50.58
3598;BME280;1813;52.016;8.714;2023-03-15T10:09:13;-16261.94;;;-139.71;48.85
3598;BME280;1813;52.016;8.714;2023-03-15T10:11:58;-16261.94;;;-139.71;48.27
3598;BME280;1813;52.016;8.714;2023-03-15T10:14:51;-16261.94;;;-139.71;48.78
3598;BME280;1813;52.016;8.714;2023-03-15T10:17:36;-16261.94;;;-139.71;48.63
3598;BME280;1813;52.016;8.714;2023-03-15T10:20:17;-16261.94;;;-139.71;47.08
3598;BME280;1813;52.016;8.714;2023-03-15T10:22:55;-16261.94;;;-139.71;47.13
3598;BME280;1813;52.016;8.714;2023-03-15T10:25:33;-16261.94;;;-139.71;45.02
3598;BME280;1813;52.016;8.714;2023-03-15T10:28:12;-16261.94;;;-139.71;44.95
3598;BME280;1813;52.016;8.714;2023-03-15T10:30:48;-16261.94;;;-139.71;44.21
3598;BME280;1813;52.016;8.714;2023-03-15T10:33:28;-16261.94;;;-139.71;43.83
3598;BME280;1813;52.016;8.714;2023-03-15T10:36:13;-16261.94;;;-139.71;44.34
3598;BME280;1813;52.016;8.714;2023-03-15T10:38:47;-16261.94;;;-139.71;43.44
3598;BME280;1813;52.016;8.714;2023-03-15T10:41:37;-16261.94;;;-139.71;41.93
3598;BME280;1813;52.016;8.714;2023-03-15T10:44:17;-16261.94;;;-139.71;41.69
3598;BME280;1813;52.016;8.714;2023-03-15T10:47:01;-16261.94;;;-139.71;40.66
3598;BME280;1813;52.016;8.714;2023-03-15T10:49:38;-16261.94;;;-139.71;40.21
3598;BME280;1813;52.016;8.714;2023-03-15T10:52:32;-16261.94;;;-139.71;40.44
3598;BME280;1813;52.016;8.714;2023-03-15T10:55:19;-16261.94;;;-139.71;41.04
3598;BME280;1813;52.016;8.714;2023-03-15T10:58:18;-16261.94;;;-139.71;40.88
3598;BME280;1813;52.016;8.714;2023-03-15T11:01:03;-16261.94;;;-139.71;39.76
3598;BME280;1813;52.016;8.714;2023-03-15T11:03:38;-16261.94;;;-139.71;40.08
3598;BME280;1813;52.016;8.714;2023-03-15T11:06:25;-16261.94;;;-139.71;40.41
3598;BME280;1813;52.016;8.714;2023-03-15T11:09:11;-16261.94;;;-139.71;41.04
3598;BME280;1813;52.016;8.714;2023-03-15T11:11:56;-16261.94;;;-139.71;40.79
3598;BME280;1813;52.016;8.714;2023-03-15T11:14:35;-16261.94;;;-139.71;41.27
3598;BME280;1813;52.016;8.714;2023-03-15T11:17:19;-16261.94;;;-139.71;41.07
3598;BME280;1813;52.016;8.714;2023-03-15T11:19:55;-16261.94;;;-139.71;40.50
3598;BME280;1813;52.016;8.714;2023-03-15T11:22:31;-16261.94;;;-139.71;40.54
3598;BME280;1813;52.016;8.714;2023-03-15T11:25:11;-16261.94;;;-139.71;39.46
3598;BME280;1813;52.016;8.714;2023-03-15T11:27:46;-16261.94;;;-139.71;38.71
3598;BME280;1813;52.016;8.714;2023-03-15T11:30:28;-16261.94;;;-139.71;37.83
3598;BME280;1813;52.016;8.714;2023-03-15T11:33:07;-16261.94;;;-139.71;37.98
3598;BME280;1813;52.016;8.714;2023-03-15T11:35:52;-16261.94;;;-139.71;38.38
3598;BME280;1813;52.016;8.714;2023-03-15T11:38:32;-16261.94;;;-139.71;37.74
3598;BME280;1813;52.016;8.714;2023-03-15T11:41:13;-16261.94;;;-139.71;37.83
3598;BME280;1813;52.016;8.714;2023-03-15T11:43:58;-16261.94;;;-139.71;37.08
3598;BME280;1813;52.016;8.714;2023-03-15T11:46:39;-16261.94;;;-139.71;36.27
3598;BME280;1813;52.016;8.714;2023-03-15T11:49:30;-16261.94;;;-139.71;37.38
3598;BME280;1813;52.016;8.714;2023-03-15T11:52:06;-16261.94;;;-139.71;36.72
3598;BME280;1813;52.016;8.714;2023-03-15T11:54:42;-16261.94;;;-139.71;36.68
3598;BME280;1813;52.016;8.714;2023-03-15T11:57:46;-16261.94;;;-139.71;37.44
3598;BME280;1813;52.016;8.714;2023-03-15T12:03:39;-16261.94;;;-139.71;37.02
3598;BME280;1813;52.016;8.714;2023-03-15T12:06:39;-16261.94;;;-139.71;37.65
3598;BME280;1813;52.016;8.714;2023-03-15T12:09:38;-16261.94;;;-139.71;38.49
3598;BME280;1813;52.016;8.714;2023-03-15T12:12:34;-16261.94;;;-139.71;38.31
3598;BME280;1813;52.016;8.714;2023-03-15T12:18:30;-16261.94;;;-139.71;36.37
3598;BME280;1813;52.016;8.714;2023-03-15T12:21:14;-16261.94;;;-139.71;36.38
3598;BME280;1813;52.016;8.714;2023-03-15T12:24:06;-16261.94;;;-139.71;37.00
3598;BME280;1813;52.016;8.714;2023-03-15T12:26:43;-16261.94;;;-139.71;37.28
3598;BME280;1813;52.016;8.714;2023-03-15T12:29:20;-16261.94;;;-139.71;36.13
3598;BME280;1813;52.016;8.714;2023-03-15T12:32:06;-16261.94;;;-139.71;36.05
3598;BME280;1813;52.016;8.714;2023-03-15T12:34:46;-16261.94;;;-139.71;36.11
3598;BME280;1813;52.016;8.714;2023-03-15T12:37:26;-16261.94;;;-139.71;37.01
3598;BME280;1813;52.016;8.714;2023-03-15T12:40:40;-16261.94;;;-139.71;35.71
3598;BME280;1813;52.016;8.714;2023-03-15T12:43:38;-16261.94;;;-139.71;35.85
3598;BME280;1813;52.016;8.714;2023-03-15T12:49:39;-16261.94;;;-139.71;32.52
3598;BME280;1813;52.016;8.714;2023-03-15T12:52:37;-16261.94;;;-139.71;31.85
3598;BME280;1813;52.016;8.714;2023-03-15T12:55:17;-16261.94;;;-139.71;32.66
3598;BME280;1813;52.016;8.714;2023-03-15T12:57:52;-16261.94;;;-139.71;34.22
3598;BME280;1813;52.016;8.714;2023-03-15T13:00:30;-16261.94;;;-139.71;34.50
3598;BME280;1813;52.016;8.714;2023-03-15T13:03:09;-16261.94;;;-139.71;35.35
3598;BME280;1813;52.016;8.714;2023-03-15T13:05:55;-16261.94;;;-139.71;35.55
3598;BME280;1813;52.016;8.714;2023-03-15T13:08:35;-16261.94;;;-139.71;36.12
3598;BME280;1813;52.016;8.714;2023-03-15T13:11:19;-16261.94;;;-139.71;35.58
3598;BME280;1813;52.016;8.714;2023-03-15T13:14:19;-16261.94;;;-139.71;35.58
3598;BME280;1813;52.016;8.714;2023-03-15T13:17:05;-16261.94;;;-139.71;34.11
3598;BME280;1813;52.016;8.714;2023-03-15T13:19:53;-16261.94;;;-139.71;33.72
3598;BME280;1813;52.016;8.714;2023-03-15T13:22:35;-16261.94;;;-139.71;33.16
3598;BME280;1813;52.016;8.714;2023-03-15T13:25:18;-16261.94;;;-139.71;32.98
3598;BME280;1813;52.016;8.714;2023-03-15T13:28:09;-16261.94;;;-139.71;33.84
3598;BME280;1813;52.016;8.714;2023-03-15T13:30:48;-16261.94;;;-139.71;33.70
3598;BME280;1813;52.016;8.714;2023-03-15T13:33:29;-16261.94;;;-139.71;34.54
3598;BME280;1813;52.016;8.714;2023-03-15T13:36:13;-16261.94;;;-139.71;34.56
3598;BME280;1813;52.016;8.714;2023-03-15T13:38:50;-16261.94;;;-139.71;34.38
3598;BME280;1813;52.016;8.714;2023-03-15T13:41:27;-16261.94;;;-139.71;35.31
3598;BME280;1813;52.016;8.714;2023-03-15T13:44:15;-16261.94;;;-139.71;35.65
3598;BME280;1813;52.016;8.714;2023-03-15T13:46:51;-16261.94;;;-139.71;34.80
3598;BME280;1813;52.016;8.714;2023-03-15T13:49:33;-16261.94;;;-139.71;34.12
3598;BME280;1813;52.016;8.714;2023-03-15T13:52:06;-16261.94;;;-139.71;33.83
3598;BME280;1813;52.016;8.714;2023-03-15T13:54:44;-16261.94;;;-139.71;33.23
3598;BME280;1813;52.016;8.714;2023-03-15T13:57:20;-16261.94;;;-139.71;32.97
3598;BME280;1813;52.016;8.714;2023-03-15T14:00:00;-16261.94;;;-139.71;32.37
3598;BME280;1813;52.016;8.714;2023-03-15T14:02:45;-16261.94;;;-139.71;32.03
3598;BME280;1813;52.016;8.714;2023-03-15T14:05:23;-16261.94;;;-139.71;31.73
3598;BME280;1813;52.016;8.714;2023-03-15T14:07:59;-16261.94;;;-139.71;31.95
3598;BME280;1813;52.016;8.714;2023-03-15T14:10:39;-16261.94;;;-139.71;31.24
3598;BME280;1813;52.016;8.714;2023-03-15T14:13:22;-16261.94;;;-139.71;32.31